sensor_id;sensor_type;location;lat;lon;timestamp;P1;durP1;ratioP1;P2;durP2;ratioP2
67554;SDS011;54385;53.516;49.456;2023-04-03T00:00:58;9.90;;;5.38;;
67554;SDS011;54385;53.516;49.456;2023-04-03T00:03:25;7.25;;;4.30;;
67554;SDS011;54385;53.516;49.456;2023-04-03T00:05:52;6.82;;;3.67;;
67554;SDS011;54385;53.516;49.456;2023-04-03T00:08:18;7.13;;;3.00;;
67554;SDS011;54385;53.516;49.456;2023-04-03T00:10:46;9.80;;;5.47;;
67554;SDS011;54385;53.516;49.456;2023-04-03T00:13:13;12.25;;;4.55;;
67554;SDS011;54385;53.516;49.456;2023-04-03T00:15:40;12.70;;;4.55;;
67554;SDS011;54385;53.516;49.456;2023-04-03T00:18:07;11.70;;;4.80;;
67554;SDS011;54385;53.516;49.456;2023-04-03T00:20:34;11.00;;;4.63;;
67554;SDS011;54385;53.516;49.456;2023-04-03T00:23:02;8.30;;;4.82;;
67554;SDS011;54385;53.516;49.456;2023-04-03T00:25:28;10.18;;;5.57;;
67554;SDS011;54385;53.516;49.456;2023-04-03T00:27:55;10.65;;;5.90;;
67554;SDS011;54385;53.516;49.456;2023-04-03T00:30:22;10.50;;;5.30;;
67554;SDS011;54385;53.516;49.456;2023-04-03T00:32:49;17.25;;;5.68;;
67554;SDS011;54385;53.516;49.456;2023-04-03T00:35:17;15.93;;;6.35;;
67554;SDS011;54385;53.516;49.456;2023-04-03T00:37:46;19.55;;;8.27;;
67554;SDS011;54385;53.516;49.456;2023-04-03T00:40:14;16.70;;;7.15;;
67554;SDS011;54385;53.516;49.456;2023-04-03T00:42:42;23.42;;;9.30;;
67554;SDS011;54385;53.516;49.456;2023-04-03T00:47:37;21.00;;;11.68;;
67554;SDS011;54385;53.516;49.456;2023-04-03T00:50:05;37.97;;;16.75;;
67554;SDS011;54385;53.516;49.456;2023-04-03T00:52:33;45.55;;;17.45;;
67554;SDS011;54385;53.516;49.456;2023-04-03T00:55:01;33.13;;;14.48;;
67554;SDS011;54385;53.516;49.456;2023-04-03T00:57:30;33.70;;;13.35;;
67554;SDS011;54385;53.516;49.456;2023-04-03T00:59:59;31.75;;;13.52;;
67554;SDS011;54385;53.516;49.456;2023-04-03T01:02:30;37.75;;;11.85;;
67554;SDS011;54385;53.516;49.456;2023-04-03T01:04:57;27.27;;;11.10;;
67554;SDS011;54385;53.516;49.456;2023-04-03T01:07:26;23.25;;;10.88;;
67554;SDS011;54385;53.516;49.456;2023-04-03T01:09:57;22.48;;;9.80;;
67554;SDS011;54385;53.516;49.456;2023-04-03T01:12:27;44.22;;;13.13;;
67554;SDS011;54385;53.516;49.456;2023-04-03T01:14:57;38.47;;;13.45;;
67554;SDS011;54385;53.516;49.456;2023-04-03T01:17:31;43.00;;;12.55;;
67554;SDS011;54385;53.516;49.456;2023-04-03T01:25:36;30.00;;;9.55;;
67554;SDS011;54385;53.516;49.456;2023-04-03T01:28:08;37.42;;;15.27;;
67554;SDS011;54385;53.516;49.456;2023-04-03T01:30:48;35.65;;;22.15;;
67554;SDS011;54385;53.516;49.456;2023-04-03T01:33:22;41.72;;;25.25;;
67554;SDS011;54385;53.516;49.456;2023-04-03T01:35:49;33.85;;;14.45;;
67554;SDS011;54385;53.516;49.456;2023-04-03T01:38:16;24.13;;;11.00;;
67554;SDS011;54385;53.516;49.456;2023-04-03T01:40:43;16.30;;;6.93;;
67554;SDS011;54385;53.516;49.456;2023-04-03T01:43:10;20.05;;;7.57;;
67554;SDS011;54385;53.516;49.456;2023-04-03T01:45:36;19.25;;;7.55;;
67554;SDS011;54385;53.516;49.456;2023-04-03T01:48:03;19.50;;;7.93;;
67554;SDS011;54385;53.516;49.456;2023-04-03T01:50:31;14.93;;;6.35;;
67554;SDS011;54385;53.516;49.456;2023-04-03T01:52:57;23.52;;;7.55;;
67554;SDS011;54385;53.516;49.456;2023-04-03T01:57:51;14.85;;;6.70;;
67554;SDS011;54385;53.516;49.456;2023-04-03T02:02:44;19.70;;;7.65;;
67554;SDS011;54385;53.516;49.456;2023-04-03T02:05:11;18.98;;;6.15;;
67554;SDS011;54385;53.516;49.456;2023-04-03T02:10:04;27.90;;;8.25;;
67554;SDS011;54385;53.516;49.456;2023-04-03T02:12:31;15.68;;;6.13;;
67554;SDS011;54385;53.516;49.456;2023-04-03T02:17:24;45.53;;;7.68;;
67554;SDS011;54385;53.516;49.456;2023-04-03T02:22:17;58.65;;;12.13;;
67554;SDS011;54385;53.516;49.456;2023-04-03T02:24:45;86.43;;;14.23;;
67554;SDS011;54385;53.516;49.456;2023-04-03T02:29:38;28.15;;;6.22;;
67554;SDS011;54385;53.516;49.456;2023-04-03T02:32:05;40.22;;;9.10;;
67554;SDS011;54385;53.516;49.456;2023-04-03T02:34:32;31.35;;;6.85;;
67554;SDS011;54385;53.516;49.456;2023-04-03T02:39:25;28.50;;;6.78;;
67554;SDS011;54385;53.516;49.456;2023-04-03T02:41:52;15.45;;;7.40;;
67554;SDS011;54385;53.516;49.456;2023-04-03T02:44:19;29.73;;;6.75;;
67554;SDS011;54385;53.516;49.456;2023-04-03T02:46:46;32.00;;;6.22;;
67554;SDS011;54385;53.516;49.456;2023-04-03T02:49:13;17.55;;;5.95;;
67554;SDS011;54385;53.516;49.456;2023-04-03T02:51:39;20.77;;;6.75;;
67554;SDS011;54385;53.516;49.456;2023-04-03T02:56:33;30.10;;;7.97;;
67554;SDS011;54385;53.516;49.456;2023-04-03T02:59:02;18.00;;;5.80;;
67554;SDS011;54385;53.516;49.456;2023-04-03T03:01:29;21.23;;;5.20;;
67554;SDS011;54385;53.516;49.456;2023-04-03T03:03:58;18.63;;;5.55;;
67554;SDS011;54385;53.516;49.456;2023-04-03T03:06:26;20.25;;;5.20;;
67554;SDS011;54385;53.516;49.456;2023-04-03T03:08:53;22.73;;;5.60;;
67554;SDS011;54385;53.516;49.456;2023-04-03T03:11:20;14.55;;;4.22;;
67554;SDS011;54385;53.516;49.456;2023-04-03T03:13:47;14.45;;;3.45;;
67554;SDS011;54385;53.516;49.456;2023-04-03T03:16:14;17.00;;;3.05;;
67554;SDS011;54385;53.516;49.456;2023-04-03T03:18:40;5.32;;;2.58;;
67554;SDS011;54385;53.516;49.456;2023-04-03T03:21:08;7.72;;;2.50;;
67554;SDS011;54385;53.516;49.456;2023-04-03T03:23:36;17.20;;;2.65;;
67554;SDS011;54385;53.516;49.456;2023-04-03T03:26:04;17.00;;;3.17;;
67554;SDS011;54385;53.516;49.456;2023-04-03T03:28:33;24.73;;;3.58;;
67554;SDS011;54385;53.516;49.456;2023-04-03T03:31:01;10.77;;;1.92;;
67554;SDS011;54385;53.516;49.456;2023-04-03T03:33:29;11.82;;;2.42;;
67554;SDS011;54385;53.516;49.456;2023-04-03T03:35:56;4.57;;;1.90;;
67554;SDS011;54385;53.516;49.456;2023-04-03T03:38:23;38.33;;;3.90;;
67554;SDS011;54385;53.516;49.456;2023-04-03T03:40:50;15.55;;;2.70;;
67554;SDS011;54385;53.516;49.456;2023-04-03T03:43:18;11.15;;;2.97;;
67554;SDS011;54385;53.516;49.456;2023-04-03T03:45:49;8.70;;;1.98;;
67554;SDS011;54385;53.516;49.456;2023-04-03T03:48:18;5.57;;;2.72;;
67554;SDS011;54385;53.516;49.456;2023-04-03T03:50:46;7.82;;;2.10;;
67554;SDS011;54385;53.516;49.456;2023-04-03T03:53:14;7.13;;;1.85;;
67554;SDS011;54385;53.516;49.456;2023-04-03T03:55:42;10.70;;;2.38;;
67554;SDS011;54385;53.516;49.456;2023-04-03T03:58:11;18.48;;;3.03;;
67554;SDS011;54385;53.516;49.456;2023-04-03T04:00:38;11.55;;;2.95;;
67554;SDS011;54385;53.516;49.456;2023-04-03T04:03:05;11.50;;;2.20;;
67554;SDS011;54385;53.516;49.456;2023-04-03T04:05:32;6.60;;;2.20;;
67554;SDS011;54385;53.516;49.456;2023-04-03T04:07:59;19.55;;;6.00;;
67554;SDS011;54385;53.516;49.456;2023-04-03T04:10:26;9.50;;;2.70;;
67554;SDS011;54385;53.516;49.456;2023-04-03T04:12:53;10.25;;;2.80;;
67554;SDS011;54385;53.516;49.456;2023-04-03T04:15:21;20.05;;;2.88;;
67554;SDS011;54385;53.516;49.456;2023-04-03T04:17:48;17.48;;;2.60;;
67554;SDS011;54385;53.516;49.456;2023-04-03T04:20:15;13.30;;;2.38;;
67554;SDS011;54385;53.516;49.456;2023-04-03T04:22:44;11.23;;;2.75;;
67554;SDS011;54385;53.516;49.456;2023-04-03T04:25:11;8.55;;;2.13;;
67554;SDS011;54385;53.516;49.456;2023-04-03T04:27:41;11.50;;;2.25;;
67554;SDS011;54385;53.516;49.456;2023-04-03T04:30:08;16.05;;;2.95;;
67554;SDS011;54385;53.516;49.456;2023-04-03T04:32:36;5.10;;;1.67;;
67554;SDS011;54385;53.516;49.456;2023-04-03T04:35:03;15.10;;;2.45;;
67554;SDS011;54385;53.516;49.456;2023-04-03T04:37:32;19.10;;;2.03;;
67554;SDS011;54385;53.516;49.456;2023-04-03T04:39:59;13.02;;;2.17;;
67554;SDS011;54385;53.516;49.456;2023-04-03T04:42:29;7.85;;;1.95;;
67554;SDS011;54385;53.516;49.456;2023-04-03T04:44:56;7.45;;;2.65;;
67554;SDS011;54385;53.516;49.456;2023-04-03T04:47:23;9.27;;;1.80;;
67554;SDS011;54385;53.516;49.456;2023-04-03T04:49:49;10.80;;;1.77;;
67554;SDS011;54385;53.516;49.456;2023-04-03T04:52:17;7.00;;;2.75;;
67554;SDS011;54385;53.516;49.456;2023-04-03T04:54:44;7.75;;;2.08;;
67554;SDS011;54385;53.516;49.456;2023-04-03T04:57:10;23.55;;;3.58;;
67554;SDS011;54385;53.516;49.456;2023-04-03T04:59:40;6.60;;;1.70;;
67554;SDS011;54385;53.516;49.456;2023-04-03T05:02:07;6.07;;;1.65;;
67554;SDS011;54385;53.516;49.456;2023-04-03T05:06:59;18.55;;;2.75;;
67554;SDS011;54385;53.516;49.456;2023-04-03T05:09:26;10.25;;;2.47;;
67554;SDS011;54385;53.516;49.456;2023-04-03T05:11:53;5.53;;;1.45;;
67554;SDS011;54385;53.516;49.456;2023-04-03T05:14:19;6.10;;;2.60;;
67554;SDS011;54385;53.516;49.456;2023-04-03T05:16:46;14.20;;;3.35;;
67554;SDS011;54385;53.516;49.456;2023-04-03T05:19:13;12.60;;;3.45;;
67554;SDS011;54385;53.516;49.456;2023-04-03T05:21:39;14.32;;;2.55;;
67554;SDS011;54385;53.516;49.456;2023-04-03T05:26:38;11.63;;;2.25;;
67554;SDS011;54385;53.516;49.456;2023-04-03T05:29:09;32.42;;;3.97;;
67554;SDS011;54385;53.516;49.456;2023-04-03T05:31:35;9.65;;;2.55;;
67554;SDS011;54385;53.516;49.456;2023-04-03T05:34:02;15.30;;;2.10;;
67554;SDS011;54385;53.516;49.456;2023-04-03T05:36:29;32.45;;;2.97;;
67554;SDS011;54385;53.516;49.456;2023-04-03T05:38:55;19.02;;;2.50;;
67554;SDS011;54385;53.516;49.456;2023-04-03T05:41:22;12.75;;;1.95;;
67554;SDS011;54385;53.516;49.456;2023-04-03T05:43:49;10.05;;;2.78;;
67554;SDS011;54385;53.516;49.456;2023-04-03T05:46:17;5.65;;;1.50;;
67554;SDS011;54385;53.516;49.456;2023-04-03T05:48:45;35.22;;;6.03;;
67554;SDS011;54385;53.516;49.456;2023-04-03T05:51:19;23.23;;;2.72;;
67554;SDS011;54385;53.516;49.456;2023-04-03T05:54:17;16.90;;;2.92;;
67554;SDS011;54385;53.516;49.456;2023-04-03T05:56:50;6.10;;;1.95;;
67554;SDS011;54385;53.516;49.456;2023-04-03T05:59:17;10.93;;;2.10;;
67554;SDS011;54385;53.516;49.456;2023-04-03T06:01:47;10.02;;;2.35;;
67554;SDS011;54385;53.516;49.456;2023-04-03T06:04:14;11.00;;;1.92;;
67554;SDS011;54385;53.516;49.456;2023-04-03T06:06:45;13.63;;;2.20;;
67554;SDS011;54385;53.516;49.456;2023-04-03T06:09:15;12.32;;;2.78;;
67554;SDS011;54385;53.516;49.456;2023-04-03T06:11:42;7.43;;;2.53;;
67554;SDS011;54385;53.516;49.456;2023-04-03T06:14:09;16.10;;;3.33;;
67554;SDS011;54385;53.516;49.456;2023-04-03T06:16:36;7.45;;;1.90;;
67554;SDS011;54385;53.516;49.456;2023-04-03T06:19:03;7.20;;;2.42;;
67554;SDS011;54385;53.516;49.456;2023-04-03T06:21:31;16.17;;;2.70;;
67554;SDS011;54385;53.516;49.456;2023-04-03T06:24:03;11.43;;;2.35;;
67554;SDS011;54385;53.516;49.456;2023-04-03T06:26:30;9.30;;;1.98;;
67554;SDS011;54385;53.516;49.456;2023-04-03T06:28:57;10.70;;;2.38;;
67554;SDS011;54385;53.516;49.456;2023-04-03T06:31:24;11.95;;;2.65;;
67554;SDS011;54385;53.516;49.456;2023-04-03T06:33:50;7.18;;;2.17;;
67554;SDS011;54385;53.516;49.456;2023-04-03T06:36:18;15.30;;;2.63;;
67554;SDS011;54385;53.516;49.456;2023-04-03T06:38:46;16.27;;;2.38;;
67554;SDS011;54385;53.516;49.456;2023-04-03T06:41:13;25.50;;;2.95;;
67554;SDS011;54385;53.516;49.456;2023-04-03T06:43:42;12.48;;;2.08;;
67554;SDS011;54385;53.516;49.456;2023-04-03T06:46:19;15.85;;;1.88;;
67554;SDS011;54385;53.516;49.456;2023-04-03T06:48:48;11.02;;;1.83;;
67554;SDS011;54385;53.516;49.456;2023-04-03T06:51:18;22.33;;;3.65;;
67554;SDS011;54385;53.516;49.456;2023-04-03T06:56:14;4.70;;;2.20;;
67554;SDS011;54385;53.516;49.456;2023-04-03T06:58:42;23.80;;;3.65;;
67554;SDS011;54385;53.516;49.456;2023-04-03T07:01:09;11.20;;;2.30;;
67554;SDS011;54385;53.516;49.456;2023-04-03T07:03:38;26.20;;;3.65;;
67554;SDS011;54385;53.516;49.456;2023-04-03T07:06:05;13.45;;;2.95;;
67554;SDS011;54385;53.516;49.456;2023-04-03T07:08:45;13.70;;;2.40;;
67554;SDS011;54385;53.516;49.456;2023-04-03T07:11:25;22.63;;;2.42;;
67554;SDS011;54385;53.516;49.456;2023-04-03T07:13:52;18.27;;;2.13;;
67554;SDS011;54385;53.516;49.456;2023-04-03T07:16:19;23.98;;;2.22;;
67554;SDS011;54385;53.516;49.456;2023-04-03T07:18:46;10.00;;;2.60;;
67554;SDS011;54385;53.516;49.456;2023-04-03T07:21:13;31.38;;;2.63;;
67554;SDS011;54385;53.516;49.456;2023-04-03T07:23:39;12.23;;;2.17;;
67554;SDS011;54385;53.516;49.456;2023-04-03T07:26:06;7.95;;;1.40;;
67554;SDS011;54385;53.516;49.456;2023-04-03T07:28:33;7.53;;;1.42;;
67554;SDS011;54385;53.516;49.456;2023-04-03T07:31:01;21.30;;;2.15;;
67554;SDS011;54385;53.516;49.456;2023-04-03T07:33:30;16.23;;;2.20;;
67554;SDS011;54385;53.516;49.456;2023-04-03T07:36:01;14.10;;;2.55;;
67554;SDS011;54385;53.516;49.456;2023-04-03T07:38:27;8.25;;;2.03;;
67554;SDS011;54385;53.516;49.456;2023-04-03T07:40:54;15.45;;;3.10;;
67554;SDS011;54385;53.516;49.456;2023-04-03T07:43:22;12.73;;;2.13;;
67554;SDS011;54385;53.516;49.456;2023-04-03T07:45:50;19.80;;;3.22;;
67554;SDS011;54385;53.516;49.456;2023-04-03T07:48:21;12.27;;;2.35;;
67554;SDS011;54385;53.516;49.456;2023-04-03T07:50:49;8.30;;;1.83;;
67554;SDS011;54385;53.516;49.456;2023-04-03T07:53:17;11.45;;;2.47;;
67554;SDS011;54385;53.516;49.456;2023-04-03T07:55:48;20.33;;;2.40;;
67554;SDS011;54385;53.516;49.456;2023-04-03T07:58:17;15.98;;;1.80;;
67554;SDS011;54385;53.516;49.456;2023-04-03T08:00:45;13.98;;;2.25;;
67554;SDS011;54385;53.516;49.456;2023-04-03T08:03:12;41.50;;;4.35;;
67554;SDS011;54385;53.516;49.456;2023-04-03T08:05:45;15.20;;;2.10;;
67554;SDS011;54385;53.516;49.456;2023-04-03T08:08:14;7.97;;;1.83;;
67554;SDS011;54385;53.516;49.456;2023-04-03T08:10:52;9.52;;;1.38;;
67554;SDS011;54385;53.516;49.456;2023-04-03T08:13:19;11.15;;;1.73;;
67554;SDS011;54385;53.516;49.456;2023-04-03T08:15:50;9.52;;;1.70;;
67554;SDS011;54385;53.516;49.456;2023-04-03T08:18:17;20.35;;;2.00;;
67554;SDS011;54385;53.516;49.456;2023-04-03T08:20:47;10.10;;;1.48;;
67554;SDS011;54385;53.516;49.456;2023-04-03T08:23:14;14.02;;;3.25;;
67554;SDS011;54385;53.516;49.456;2023-04-03T08:25:41;14.02;;;2.63;;
67554;SDS011;54385;53.516;49.456;2023-04-03T08:28:09;13.68;;;3.03;;
67554;SDS011;54385;53.516;49.456;2023-04-03T08:30:40;10.30;;;2.15;;
67554;SDS011;54385;53.516;49.456;2023-04-03T08:33:08;15.25;;;2.40;;
67554;SDS011;54385;53.516;49.456;2023-04-03T08:35:40;8.18;;;1.83;;
67554;SDS011;54385;53.516;49.456;2023-04-03T08:38:08;21.27;;;2.53;;
67554;SDS011;54385;53.516;49.456;2023-04-03T08:40:36;16.83;;;1.70;;
67554;SDS011;54385;53.516;49.456;2023-04-03T08:43:10;49.20;;;5.07;;
67554;SDS011;54385;53.516;49.456;2023-04-03T08:46:06;38.15;;;4.82;;
67554;SDS011;54385;53.516;49.456;2023-04-03T08:51:17;18.65;;;2.40;;
67554;SDS011;54385;53.516;49.456;2023-04-03T08:53:50;20.48;;;2.65;;
67554;SDS011;54385;53.516;49.456;2023-04-03T08:56:44;23.88;;;2.95;;
67554;SDS011;54385;53.516;49.456;2023-04-03T08:59:19;10.77;;;2.28;;
67554;SDS011;54385;53.516;49.456;2023-04-03T09:01:52;22.45;;;3.35;;
67554;SDS011;54385;53.516;49.456;2023-04-03T09:04:20;20.20;;;2.65;;
67554;SDS011;54385;53.516;49.456;2023-04-03T09:06:55;14.80;;;2.03;;
67554;SDS011;54385;53.516;49.456;2023-04-03T09:09:39;18.63;;;2.92;;
67554;SDS011;54385;53.516;49.456;2023-04-03T09:12:24;10.70;;;1.88;;
67554;SDS011;54385;53.516;49.456;2023-04-03T09:18:03;11.20;;;2.38;;
67554;SDS011;54385;53.516;49.456;2023-04-03T09:20:46;13.05;;;1.90;;
67554;SDS011;54385;53.516;49.456;2023-04-03T09:23:38;17.15;;;2.28;;
67554;SDS011;54385;53.516;49.456;2023-04-03T09:26:13;21.60;;;3.28;;
67554;SDS011;54385;53.516;49.456;2023-04-03T09:28:46;42.38;;;4.78;;
67554;SDS011;54385;53.516;49.456;2023-04-03T09:31:20;13.77;;;2.15;;
67554;SDS011;54385;53.516;49.456;2023-04-03T09:33:50;14.32;;;1.80;;
67554;SDS011;54385;53.516;49.456;2023-04-03T09:36:48;14.68;;;2.38;;
67554;SDS011;54385;53.516;49.456;2023-04-03T09:39:20;8.02;;;2.78;;
67554;SDS011;54385;53.516;49.456;2023-04-03T09:42:01;16.73;;;2.08;;
67554;SDS011;54385;53.516;49.456;2023-04-03T09:44:56;15.07;;;2.33;;
67554;SDS011;54385;53.516;49.456;2023-04-03T09:47:33;12.43;;;2.10;;
67554;SDS011;54385;53.516;49.456;2023-04-03T09:52:50;9.13;;;1.20;;
67554;SDS011;54385;53.516;49.456;2023-04-03T09:55:18;21.52;;;2.55;;
67554;SDS011;54385;53.516;49.456;2023-04-03T09:57:47;14.32;;;1.75;;
67554;SDS011;54385;53.516;49.456;2023-04-03T10:00:25;23.67;;;2.83;;
67554;SDS011;54385;53.516;49.456;2023-04-03T10:03:01;12.77;;;2.35;;
67554;SDS011;54385;53.516;49.456;2023-04-03T10:05:36;19.50;;;2.80;;
67554;SDS011;54385;53.516;49.456;2023-04-03T10:10:36;22.38;;;2.97;;
67554;SDS011;54385;53.516;49.456;2023-04-03T10:13:12;13.55;;;1.48;;
67554;SDS011;54385;53.516;49.456;2023-04-03T10:18:45;22.70;;;3.30;;
67554;SDS011;54385;53.516;49.456;2023-04-03T10:24:29;17.40;;;2.63;;
67554;SDS011;54385;53.516;49.456;2023-04-03T10:29:58;13.68;;;2.40;;
67554;SDS011;54385;53.516;49.456;2023-04-03T10:32:48;11.07;;;2.15;;
67554;SDS011;54385;53.516;49.456;2023-04-03T10:41:12;39.25;;;4.15;;
67554;SDS011;54385;53.516;49.456;2023-04-03T10:43:56;16.73;;;2.50;;
67554;SDS011;54385;53.516;49.456;2023-04-03T10:46:47;32.80;;;3.95;;
67554;SDS011;54385;53.516;49.456;2023-04-03T10:51:59;11.65;;;2.03;;
67554;SDS011;54385;53.516;49.456;2023-04-03T10:54:38;11.43;;;2.58;;
67554;SDS011;54385;53.516;49.456;2023-04-03T10:57:11;21.73;;;2.90;;
67554;SDS011;54385;53.516;49.456;2023-04-03T10:59:48;16.05;;;2.35;;
67554;SDS011;54385;53.516;49.456;2023-04-03T11:03:22;20.75;;;3.10;;
67554;SDS011;54385;53.516;49.456;2023-04-03T11:05:34;13.48;;;2.20;;
67554;SDS011;54385;53.516;49.456;2023-04-03T11:08:27;25.98;;;3.97;;
67554;SDS011;54385;53.516;49.456;2023-04-03T11:11:00;18.60;;;2.90;;
67554;SDS011;54385;53.516;49.456;2023-04-03T11:13:35;12.57;;;2.10;;
67554;SDS011;54385;53.516;49.456;2023-04-03T11:16:06;14.15;;;2.20;;
67554;SDS011;54385;53.516;49.456;2023-04-03T11:18:39;13.57;;;2.50;;
67554;SDS011;54385;53.516;49.456;2023-04-03T11:21:19;17.92;;;3.05;;
67554;SDS011;54385;53.516;49.456;2023-04-03T11:23:50;9.43;;;1.92;;
67554;SDS011;54385;53.516;49.456;2023-04-03T11:26:19;17.90;;;2.70;;
67554;SDS011;54385;53.516;49.456;2023-04-03T11:28:58;20.38;;;3.17;;
67554;SDS011;54385;53.516;49.456;2023-04-03T11:34:22;24.45;;;2.92;;
67554;SDS011;54385;53.516;49.456;2023-04-03T11:37:05;21.27;;;4.07;;
67554;SDS011;54385;53.516;49.456;2023-04-03T11:39:52;12.43;;;1.95;;
67554;SDS011;54385;53.516;49.456;2023-04-03T11:42:46;26.38;;;4.30;;
67554;SDS011;54385;53.516;49.456;2023-04-03T11:45:34;23.55;;;2.78;;
67554;SDS011;54385;53.516;49.456;2023-04-03T11:51:37;16.73;;;2.90;;
67554;SDS011;54385;53.516;49.456;2023-04-03T12:08:50;12.27;;;2.20;;
67554;SDS011;54385;53.516;49.456;2023-04-03T12:11:29;22.58;;;2.80;;
67554;SDS011;54385;53.516;49.456;2023-04-03T12:27:00;13.70;;;2.28;;
67554;SDS011;54385;53.516;49.456;2023-04-03T12:46:47;13.88;;;2.03;;
67554;SDS011;54385;53.516;49.456;2023-04-03T12:49:57;14.10;;;2.55;;
67554;SDS011;54385;53.516;49.456;2023-04-03T12:54:55;45.60;;;4.32;;
67554;SDS011;54385;53.516;49.456;2023-04-03T12:57:25;16.92;;;2.92;;
67554;SDS011;54385;53.516;49.456;2023-04-03T12:59:58;30.73;;;3.42;;
67554;SDS011;54385;53.516;49.456;2023-04-03T13:02:29;22.83;;;5.10;;
67554;SDS011;54385;53.516;49.456;2023-04-03T13:05:06;23.15;;;3.22;;
67554;SDS011;54385;53.516;49.456;2023-04-03T13:07:36;23.55;;;2.85;;
67554;SDS011;54385;53.516;49.456;2023-04-03T13:12:33;12.80;;;2.17;;
67554;SDS011;54385;53.516;49.456;2023-04-03T13:15:02;15.88;;;1.75;;
67554;SDS011;54385;53.516;49.456;2023-04-03T13:17:40;11.80;;;1.80;;
67554;SDS011;54385;53.516;49.456;2023-04-03T13:20:18;20.38;;;2.40;;
67554;SDS011;54385;53.516;49.456;2023-04-03T13:22:59;23.50;;;3.15;;
67554;SDS011;54385;53.516;49.456;2023-04-03T13:25:35;20.13;;;2.78;;
67554;SDS011;54385;53.516;49.456;2023-04-03T13:28:06;14.00;;;2.65;;
67554;SDS011;54385;53.516;49.456;2023-04-03T13:30:38;21.05;;;3.50;;
67554;SDS011;54385;53.516;49.456;2023-04-03T13:33:19;47.05;;;5.43;;
67554;SDS011;54385;53.516;49.456;2023-04-03T13:35:55;11.73;;;2.67;;
67554;SDS011;54385;53.516;49.456;2023-04-03T13:38:31;21.13;;;3.28;;
67554;SDS011;54385;53.516;49.456;2023-04-03T13:41:00;15.65;;;2.92;;
67554;SDS011;54385;53.516;49.456;2023-04-03T13:43:33;22.08;;;3.65;;
67554;SDS011;54385;53.516;49.456;2023-04-03T13:46:03;17.25;;;2.53;;
67554;SDS011;54385;53.516;49.456;2023-04-03T13:53:47;13.60;;;2.35;;
67554;SDS011;54385;53.516;49.456;2023-04-03T13:56:22;15.02;;;2.28;;
67554;SDS011;54385;53.516;49.456;2023-04-03T13:59:37;24.00;;;2.88;;
67554;SDS011;54385;53.516;49.456;2023-04-03T14:04:19;122.35;;;12.15;;
67554;SDS011;54385;53.516;49.456;2023-04-03T14:06:48;12.27;;;2.28;;
67554;SDS011;54385;53.516;49.456;2023-04-03T14:09:16;21.20;;;3.05;;
67554;SDS011;54385;53.516;49.456;2023-04-03T14:11:44;17.73;;;2.10;;
67554;SDS011;54385;53.516;49.456;2023-04-03T14:14:17;42.65;;;3.38;;
67554;SDS011;54385;53.516;49.456;2023-04-03T14:16:48;19.00;;;1.88;;
67554;SDS011;54385;53.516;49.456;2023-04-03T14:19:21;19.92;;;4.05;;
67554;SDS011;54385;53.516;49.456;2023-04-03T14:21:57;24.08;;;11.02;;
67554;SDS011;54385;53.516;49.456;2023-04-03T14:24:25;40.58;;;6.80;;
67554;SDS011;54385;53.516;49.456;2023-04-03T14:26:53;68.32;;;8.18;;
67554;SDS011;54385;53.516;49.456;2023-04-03T14:29:21;64.13;;;6.93;;
67554;SDS011;54385;53.516;49.456;2023-04-03T14:31:49;73.22;;;5.97;;
67554;SDS011;54385;53.516;49.456;2023-04-03T14:34:16;21.15;;;4.60;;
67554;SDS011;54385;53.516;49.456;2023-04-03T14:36:43;63.10;;;7.38;;
67554;SDS011;54385;53.516;49.456;2023-04-03T14:39:16;31.98;;;7.07;;
67554;SDS011;54385;53.516;49.456;2023-04-03T14:41:44;30.00;;;9.32;;
67554;SDS011;54385;53.516;49.456;2023-04-03T14:44:11;27.35;;;11.27;;
67554;SDS011;54385;53.516;49.456;2023-04-03T14:46:39;24.33;;;9.18;;
67554;SDS011;54385;53.516;49.456;2023-04-03T14:49:15;22.02;;;7.00;;
67554;SDS011;54385;53.516;49.456;2023-04-03T14:51:49;122.72;;;12.77;;
67554;SDS011;54385;53.516;49.456;2023-04-03T14:54:17;81.35;;;9.77;;
67554;SDS011;54385;53.516;49.456;2023-04-03T14:56:47;37.97;;;7.15;;
67554;SDS011;54385;53.516;49.456;2023-04-03T14:59:13;113.97;;;11.70;;
67554;SDS011;54385;53.516;49.456;2023-04-03T15:01:42;112.50;;;12.00;;
67554;SDS011;54385;53.516;49.456;2023-04-03T15:04:14;130.38;;;12.70;;
67554;SDS011;54385;53.516;49.456;2023-04-03T15:06:41;73.72;;;8.77;;
67554;SDS011;54385;53.516;49.456;2023-04-03T15:09:12;52.15;;;8.63;;
67554;SDS011;54385;53.516;49.456;2023-04-03T15:11:41;36.58;;;6.55;;
67554;SDS011;54385;53.516;49.456;2023-04-03T15:14:08;80.45;;;10.40;;
67554;SDS011;54385;53.516;49.456;2023-04-03T15:16:35;50.58;;;7.95;;
67554;SDS011;54385;53.516;49.456;2023-04-03T15:19:02;37.25;;;8.30;;
67554;SDS011;54385;53.516;49.456;2023-04-03T15:21:29;63.97;;;9.18;;
67554;SDS011;54385;53.516;49.456;2023-04-03T15:23:55;178.75;;;15.93;;
67554;SDS011;54385;53.516;49.456;2023-04-03T15:26:22;146.82;;;17.70;;
67554;SDS011;54385;53.516;49.456;2023-04-03T15:28:48;83.25;;;15.35;;
67554;SDS011;54385;53.516;49.456;2023-04-03T15:31:15;43.92;;;15.23;;
67554;SDS011;54385;53.516;49.456;2023-04-03T15:33:41;38.28;;;12.05;;
67554;SDS011;54385;53.516;49.456;2023-04-03T15:36:09;36.08;;;10.00;;
67554;SDS011;54385;53.516;49.456;2023-04-03T15:38:36;30.10;;;12.02;;
67554;SDS011;54385;53.516;49.456;2023-04-03T15:41:04;35.33;;;10.63;;
67554;SDS011;54385;53.516;49.456;2023-04-03T15:43:31;55.63;;;13.13;;
67554;SDS011;54385;53.516;49.456;2023-04-03T15:45:59;54.30;;;18.08;;
67554;SDS011;54385;53.516;49.456;2023-04-03T15:48:26;41.60;;;15.82;;
67554;SDS011;54385;53.516;49.456;2023-04-03T15:50:54;37.53;;;15.38;;
67554;SDS011;54385;53.516;49.456;2023-04-03T15:53:21;33.63;;;10.93;;
67554;SDS011;54385;53.516;49.456;2023-04-03T15:55:48;25.80;;;7.93;;
67554;SDS011;54385;53.516;49.456;2023-04-03T15:58:15;25.02;;;8.30;;
67554;SDS011;54385;53.516;49.456;2023-04-03T16:00:42;24.33;;;8.55;;
67554;SDS011;54385;53.516;49.456;2023-04-03T16:03:11;29.20;;;8.15;;
67554;SDS011;54385;53.516;49.456;2023-04-03T16:05:41;33.10;;;6.38;;
67554;SDS011;54385;53.516;49.456;2023-04-03T16:08:08;31.58;;;8.40;;
67554;SDS011;54385;53.516;49.456;2023-04-03T16:10:36;46.58;;;11.13;;
67554;SDS011;54385;53.516;49.456;2023-04-03T16:13:06;39.00;;;9.75;;
67554;SDS011;54385;53.516;49.456;2023-04-03T16:15:34;46.10;;;8.27;;
67554;SDS011;54385;53.516;49.456;2023-04-03T16:18:03;36.20;;;7.32;;
67554;SDS011;54385;53.516;49.456;2023-04-03T16:20:30;31.95;;;5.57;;
67554;SDS011;54385;53.516;49.456;2023-04-03T16:22:58;27.65;;;5.75;;
67554;SDS011;54385;53.516;49.456;2023-04-03T16:25:28;27.52;;;5.18;;
67554;SDS011;54385;53.516;49.456;2023-04-03T16:28:02;41.80;;;5.70;;
67554;SDS011;54385;53.516;49.456;2023-04-03T16:30:29;57.10;;;8.35;;
67554;SDS011;54385;53.516;49.456;2023-04-03T16:32:56;39.67;;;6.72;;
67554;SDS011;54385;53.516;49.456;2023-04-03T16:35:23;36.17;;;6.70;;
67554;SDS011;54385;53.516;49.456;2023-04-03T16:37:53;38.33;;;6.60;;
67554;SDS011;54385;53.516;49.456;2023-04-03T16:40:19;25.70;;;4.35;;
67554;SDS011;54385;53.516;49.456;2023-04-03T16:42:47;54.10;;;6.47;;
67554;SDS011;54385;53.516;49.456;2023-04-03T16:45:14;41.03;;;6.75;;
67554;SDS011;54385;53.516;49.456;2023-04-03T16:47:41;36.50;;;5.63;;